createdAt,value
2023-05-09T00:02:35.603Z,0.00
2023-05-09T00:07:35.489Z,0.00
2023-05-09T00:12:35.411Z,0.00
2023-05-09T00:17:35.359Z,0.00
2023-05-09T00:22:35.285Z,0.00
2023-05-09T00:27:35.224Z,0.00
2023-05-09T00:32:35.188Z,0.00
2023-05-09T00:37:35.080Z,0.00
2023-05-09T00:42:35.013Z,0.00
2023-05-09T00:47:34.976Z,0.00
2023-05-09T00:52:34.872Z,0.00
2023-05-09T00:57:34.823Z,0.00
2023-05-09T01:02:34.814Z,0.00
2023-05-09T01:07:34.692Z,0.00
2023-05-09T01:12:34.608Z,0.00
2023-05-09T01:17:34.577Z,0.00
2023-05-09T01:22:34.476Z,0.00
2023-05-09T01:27:34.435Z,0.00
2023-05-09T01:32:34.355Z,0.00
2023-05-09T01:37:34.306Z,0.00
2023-05-09T01:42:34.211Z,0.00
2023-05-09T01:47:34.178Z,0.00
2023-05-09T01:52:34.078Z,0.00
2023-05-09T01:57:34.018Z,0.00
2023-05-09T02:02:34.024Z,0.00
2023-05-09T02:07:33.885Z,0.00
2023-05-09T02:12:33.812Z,0.00
2023-05-09T02:17:33.800Z,0.00
2023-05-09T02:22:33.682Z,0.00
2023-05-09T02:27:33.628Z,0.00
2023-05-09T02:32:33.560Z,0.00
2023-05-09T02:37:33.500Z,0.00
2023-05-09T02:42:33.407Z,0.00
2023-05-09T02:47:33.396Z,0.00
2023-05-09T02:52:33.279Z,0.00
2023-05-09T02:57:33.217Z,0.00
2023-05-09T03:02:33.212Z,8.00
2023-05-09T03:07:33.091Z,16.00
2023-05-09T03:12:33.030Z,36.00
2023-05-09T03:17:32.990Z,64.00
2023-05-09T03:22:32.892Z,116.00
2023-05-09T03:27:32.846Z,200.00
2023-05-09T03:32:32.827Z,312.00
2023-05-09T03:37:32.705Z,460.00
2023-05-09T03:42:32.635Z,648.00
2023-05-09T03:47:32.565Z,864.00
2023-05-09T03:52:32.492Z,1184.00
2023-05-09T03:57:32.425Z,1524.00
2023-05-09T04:02:32.479Z,2068.00
2023-05-09T04:07:32.294Z,2472.00
2023-05-09T04:12:32.234Z,3092.00
2023-05-09T04:17:32.181Z,4044.00
2023-05-09T04:22:32.099Z,4192.00
2023-05-09T04:27:32.030Z,5612.00
2023-05-09T04:32:32.084Z,6704.00
2023-05-09T04:37:31.893Z,8088.00
2023-05-09T04:42:31.838Z,10848.00
2023-05-09T04:47:31.803Z,24064.00
2023-05-09T04:52:31.700Z,28128.00
2023-05-09T04:57:31.623Z,32352.00
2023-05-09T05:02:31.600Z,32288.00
2023-05-09T05:07:31.492Z,34784.00
2023-05-09T05:12:31.443Z,40928.00
2023-05-09T05:17:31.439Z,36320.00
2023-05-09T05:22:32.783Z,45664.00
2023-05-09T05:27:31.236Z,45216.00
2023-05-09T05:32:31.235Z,48832.00
2023-05-09T05:37:31.097Z,51648.00
2023-05-09T05:42:31.029Z,52608.00
2023-05-09T05:47:30.992Z,56608.00
2023-05-09T05:52:30.890Z,54624.00
2023-05-09T05:57:30.826Z,59872.00
2023-05-09T06:02:30.847Z,53088.00
2023-05-09T06:07:30.694Z,59744.00
2023-05-09T06:12:30.616Z,65184.00
2023-05-09T06:17:30.572Z,63328.00
2023-05-09T06:22:30.477Z,62432.00
2023-05-09T06:27:30.419Z,34720.00
2023-05-09T06:32:30.383Z,66496.00
2023-05-09T06:37:30.291Z,70368.00
2023-05-09T06:42:30.218Z,75648.00
2023-05-09T06:47:30.186Z,75680.00
2023-05-09T06:52:30.093Z,72224.00
2023-05-09T06:57:30.032Z,73632.00
2023-05-09T07:02:30.038Z,76256.00
2023-05-09T07:07:29.894Z,75136.00
2023-05-09T07:12:29.816Z,80800.00
2023-05-09T07:17:29.793Z,78688.00
2023-05-09T07:22:31.587Z,84448.00
2023-05-09T07:27:29.628Z,74208.00
2023-05-09T07:32:29.584Z,82688.00
2023-05-09T07:37:29.506Z,87712.00
2023-05-09T07:42:29.427Z,82336.00
2023-05-09T07:47:29.407Z,84000.00
2023-05-09T07:52:29.536Z,80992.00
2023-05-09T07:57:29.227Z,72000.00
2023-05-09T08:02:29.273Z,75520.00
2023-05-09T08:07:29.095Z,76960.00
2023-05-09T08:12:29.018Z,74944.00
2023-05-09T08:17:29.013Z,78816.00
2023-05-09T08:22:28.899Z,75872.00
2023-05-09T08:27:28.836Z,82464.00
2023-05-09T08:32:28.797Z,74080.00
2023-05-09T08:37:28.722Z,76960.00
2023-05-09T08:42:28.637Z,77728.00
2023-05-09T08:47:28.632Z,73856.00
2023-05-09T08:52:28.508Z,70368.00
2023-05-09T08:57:28.456Z,69824.00
2023-05-09T09:02:28.394Z,69920.00
2023-05-09T09:07:30.544Z,67712.00
2023-05-09T09:12:28.256Z,73312.00
2023-05-09T09:17:28.251Z,69376.00
2023-05-09T09:22:28.128Z,68704.00
2023-05-09T09:27:28.074Z,72192.00
2023-05-09T09:32:28.009Z,72480.00
2023-05-09T09:37:28.029Z,68576.00
2023-05-09T09:42:27.871Z,75808.00
2023-05-09T09:47:27.823Z,66336.00
2023-05-09T09:52:27.731Z,70496.00
2023-05-09T09:57:27.677Z,66272.00
2023-05-09T10:02:27.638Z,63328.00
2023-05-09T10:07:27.540Z,60768.00
2023-05-09T10:12:27.471Z,60864.00
2023-05-09T10:17:27.549Z,58784.00
2023-05-09T10:22:27.328Z,58112.00
2023-05-09T10:27:27.268Z,56128.00
2023-05-09T10:32:27.229Z,53440.00
2023-05-09T10:37:27.129Z,57728.00
2023-05-09T10:42:27.061Z,53280.00
2023-05-09T10:47:27.012Z,53024.00
2023-05-09T10:52:26.911Z,66240.00
2023-05-09T10:57:26.861Z,60896.00
2023-05-09T11:02:26.799Z,57856.00
2023-05-09T11:07:26.726Z,28256.00
2023-05-09T11:12:26.637Z,20128.00
2023-05-09T11:17:26.613Z,18016.00
2023-05-09T11:22:26.501Z,16500.00
2023-05-09T11:27:26.439Z,15800.00
2023-05-09T11:32:26.379Z,14968.00
2023-05-09T11:37:26.312Z,13744.00
2023-05-09T11:42:26.246Z,14144.00
2023-05-09T11:47:26.199Z,10428.00
2023-05-09T11:52:26.105Z,7560.00
2023-05-09T11:57:26.035Z,7436.00
2023-05-09T12:02:26.048Z,7192.00
2023-05-09T12:07:25.901Z,6800.00
2023-05-09T12:12:25.822Z,6036.00
2023-05-09T12:17:25.804Z,5216.00
2023-05-09T12:22:25.735Z,5104.00
2023-05-09T12:27:25.629Z,5068.00
2023-05-09T12:32:25.591Z,5100.00
2023-05-09T12:37:25.495Z,5072.00
2023-05-09T12:42:25.419Z,5008.00
2023-05-09T12:47:25.363Z,4968.00
2023-05-09T12:52:25.279Z,5016.00
2023-05-09T12:57:25.218Z,5148.00
2023-05-09T13:02:25.224Z,5392.00
2023-05-09T13:07:25.097Z,5308.00
2023-05-09T13:12:25.012Z,5224.00
2023-05-09T13:17:25.039Z,5068.00
2023-05-09T13:22:24.884Z,4936.00
2023-05-09T13:27:24.824Z,4900.00
2023-05-09T13:32:24.762Z,4928.00
2023-05-09T13:37:24.685Z,4900.00
2023-05-09T13:42:24.612Z,4616.00
2023-05-09T13:47:24.666Z,4664.00
2023-05-09T13:52:24.526Z,4544.00
2023-05-09T13:57:24.417Z,4788.00
2023-05-09T14:02:24.396Z,4888.00
2023-05-09T14:07:24.498Z,4808.00
2023-05-09T14:12:24.222Z,4732.00
2023-05-09T14:17:24.195Z,4736.00
2023-05-09T14:22:24.123Z,4752.00
2023-05-09T14:27:24.026Z,4668.00
2023-05-09T14:32:23.949Z,4624.00
2023-05-09T14:37:23.992Z,4544.00
2023-05-09T14:42:23.815Z,4560.00
2023-05-09T14:47:23.886Z,4500.00
2023-05-09T14:52:23.972Z,4656.00
2023-05-09T14:57:23.634Z,4764.00
2023-05-09T15:02:23.877Z,4908.00
2023-05-09T15:07:23.798Z,4948.00
2023-05-09T15:12:23.422Z,4956.00
2023-05-09T15:17:23.376Z,4860.00
2023-05-09T15:22:23.287Z,4812.00
2023-05-09T15:27:23.228Z,4732.00
2023-05-09T15:32:23.288Z,4556.00
2023-05-09T15:37:23.103Z,4468.00
2023-05-09T15:42:23.040Z,4108.00
2023-05-09T15:47:22.977Z,3788.00
2023-05-09T15:52:22.893Z,3712.00
2023-05-09T15:57:22.857Z,3944.00
2023-05-09T16:02:22.828Z,4084.00
2023-05-09T16:07:22.699Z,3976.00
2023-05-09T16:12:22.622Z,3768.00
2023-05-09T16:17:22.556Z,3860.00
2023-05-09T16:22:22.485Z,3844.00
2023-05-09T16:27:22.425Z,3708.00
2023-05-09T16:32:22.351Z,3196.00
2023-05-09T16:37:22.284Z,3252.00
2023-05-09T16:42:22.209Z,3272.00
2023-05-09T16:47:22.146Z,3132.00
2023-05-09T16:52:22.075Z,3168.00
2023-05-09T16:57:22.009Z,3284.00
2023-05-09T17:02:21.936Z,3216.00
2023-05-09T17:07:21.900Z,3088.00
2023-05-09T17:12:21.801Z,2864.00
2023-05-09T17:17:21.776Z,2660.00
2023-05-09T17:22:21.679Z,2520.00
2023-05-09T17:27:21.625Z,2368.00
2023-05-09T17:32:21.544Z,2388.00
2023-05-09T17:37:21.537Z,2316.00
2023-05-09T17:42:21.415Z,2136.00
2023-05-09T17:47:21.356Z,2096.00
2023-05-09T17:52:21.280Z,1868.00
2023-05-09T17:57:21.223Z,1648.00
2023-05-09T18:02:21.191Z,1460.00
2023-05-09T18:07:21.100Z,1296.00
2023-05-09T18:12:21.030Z,1104.00
2023-05-09T18:17:20.966Z,904.00
2023-05-09T18:22:20.891Z,708.00
2023-05-09T18:27:20.830Z,532.00
2023-05-09T18:32:20.754Z,384.00
2023-05-09T18:37:20.702Z,264.00
2023-05-09T18:42:20.624Z,176.00
2023-05-09T18:47:20.563Z,116.00
2023-05-09T18:52:20.502Z,76.00
2023-05-09T18:57:20.438Z,40.00
2023-05-09T19:02:20.357Z,24.00
2023-05-09T19:07:20.310Z,12.00
2023-05-09T19:12:20.220Z,4.00
2023-05-09T19:17:20.159Z,4.00
2023-05-09T19:22:20.089Z,0.00
2023-05-09T19:27:20.019Z,0.00
2023-05-09T19:32:19.958Z,0.00
2023-05-09T19:37:19.888Z,0.00
2023-05-09T19:42:19.823Z,0.00
2023-05-09T19:47:19.759Z,0.00
2023-05-09T19:52:19.696Z,0.00
2023-05-09T19:57:19.659Z,0.00
2023-05-09T20:02:19.550Z,0.00
2023-05-09T20:07:19.495Z,0.00
2023-05-09T20:12:19.427Z,0.00
2023-05-09T20:17:19.360Z,0.00
2023-05-09T20:22:19.292Z,0.00
2023-05-09T20:27:19.223Z,0.00
2023-05-09T20:32:19.149Z,0.00
2023-05-09T20:37:19.091Z,0.00
2023-05-09T20:42:19.018Z,0.00
2023-05-09T20:47:18.961Z,0.00
2023-05-09T20:52:18.937Z,0.00
2023-05-09T20:57:18.997Z,0.00
2023-05-09T21:02:19.049Z,0.00
2023-05-09T21:07:19.120Z,0.00
2023-05-09T21:12:18.980Z,0.00
2023-05-09T21:17:19.095Z,0.00
2023-05-09T21:22:19.044Z,0.00
2023-05-09T21:27:18.441Z,0.00
2023-05-09T21:32:18.352Z,0.00
2023-05-09T21:37:18.292Z,0.00
2023-05-09T21:42:18.212Z,0.00
2023-05-09T21:47:18.305Z,0.00
2023-05-09T21:52:18.094Z,0.00
2023-05-09T21:57:18.017Z,0.00
2023-05-09T22:02:18.097Z,0.00
2023-05-09T22:07:17.889Z,0.00
2023-05-09T22:12:17.810Z,0.00
2023-05-09T22:17:17.756Z,0.00
2023-05-09T22:22:17.681Z,0.00
2023-05-09T22:27:17.654Z,0.00
2023-05-09T22:32:17.552Z,0.00
2023-05-09T22:37:17.495Z,0.00
2023-05-09T22:42:17.423Z,0.00
2023-05-09T22:47:17.366Z,0.00
2023-05-09T22:52:17.306Z,0.00
2023-05-09T22:57:17.236Z,0.00
2023-05-09T23:02:17.177Z,0.00
2023-05-09T23:07:17.110Z,0.00
2023-05-09T23:12:17.034Z,0.00
2023-05-09T23:17:16.975Z,0.00
2023-05-09T23:22:16.906Z,0.00
2023-05-09T23:27:16.894Z,0.00
2023-05-09T23:32:16.773Z,0.00
2023-05-09T23:37:16.710Z,0.00
2023-05-09T23:42:16.639Z,0.00
2023-05-09T23:47:16.597Z,0.00
2023-05-09T23:52:16.505Z,0.00
2023-05-09T23:57:16.441Z,0.00
